sensor_id;sensor_type;location;lat;lon;timestamp;temperature;humidity
12817;DHT22;6473;51.552;6.716;2024-03-07T00:00:41;4.40;99.90
12817;DHT22;6473;51.552;6.716;2024-03-07T00:03:08;4.50;99.90
12817;DHT22;6473;51.552;6.716;2024-03-07T00:05:35;4.40;99.90
12817;DHT22;6473;51.552;6.716;2024-03-07T00:08:02;4.40;99.90
12817;DHT22;6473;51.552;6.716;2024-03-07T00:10:29;4.30;99.90
12817;DHT22;6473;51.552;6.716;2024-03-07T00:12:57;4.30;99.90
12817;DHT22;6473;51.552;6.716;2024-03-07T00:15:25;4.30;99.90
12817;DHT22;6473;51.552;6.716;2024-03-07T00:17:55;4.40;99.90
12817;DHT22;6473;51.552;6.716;2024-03-07T00:20:22;4.30;99.90
12817;DHT22;6473;51.552;6.716;2024-03-07T00:22:49;4.20;99.90
12817;DHT22;6473;51.552;6.716;2024-03-07T00:25:16;4.20;99.90
12817;DHT22;6473;51.552;6.716;2024-03-07T00:27:45;4.10;99.90
12817;DHT22;6473;51.552;6.716;2024-03-07T00:30:12;2.50;99.90
12817;DHT22;6473;51.552;6.716;2024-03-07T00:32:42;4.10;99.90
12817;DHT22;6473;51.552;6.716;2024-03-07T00:35:09;4.10;99.90
12817;DHT22;6473;51.552;6.716;2024-03-07T00:37:35;4.00;99.90
12817;DHT22;6473;51.552;6.716;2024-03-07T00:40:03;5.10;99.90
12817;DHT22;6473;51.552;6.716;2024-03-07T00:42:30;4.00;99.90
12817;DHT22;6473;51.552;6.716;2024-03-07T00:44:56;3.90;99.90
12817;DHT22;6473;51.552;6.716;2024-03-07T00:47:23;3.90;99.90
12817;DHT22;6473;51.552;6.716;2024-03-07T00:49:52;3.90;99.90
12817;DHT22;6473;51.552;6.716;2024-03-07T00:52:19;4.80;99.90
12817;DHT22;6473;51.552;6.716;2024-03-07T00:54:46;3.70;99.90
12817;DHT22;6473;51.552;6.716;2024-03-07T00:57:13;3.70;99.90
12817;DHT22;6473;51.552;6.716;2024-03-07T00:59:40;3.70;99.90
12817;DHT22;6473;51.552;6.716;2024-03-07T01:02:07;3.80;99.90
12817;DHT22;6473;51.552;6.716;2024-03-07T01:04:34;3.70;99.90
12817;DHT22;6473;51.552;6.716;2024-03-07T01:07:03;3.70;99.90
12817;DHT22;6473;51.552;6.716;2024-03-07T01:09:30;3.70;99.90
12817;DHT22;6473;51.552;6.716;2024-03-07T01:11:56;3.70;99.90
12817;DHT22;6473;51.552;6.716;2024-03-07T01:14:25;3.50;99.90
12817;DHT22;6473;51.552;6.716;2024-03-07T01:16:52;5.40;99.90
12817;DHT22;6473;51.552;6.716;2024-03-07T01:19:19;3.60;99.90
12817;DHT22;6473;51.552;6.716;2024-03-07T01:21:46;3.60;99.90
12817;DHT22;6473;51.552;6.716;2024-03-07T01:24:14;3.50;99.90
12817;DHT22;6473;51.552;6.716;2024-03-07T01:26:43;3.50;99.90
12817;DHT22;6473;51.552;6.716;2024-03-07T01:29:10;3.50;99.90
12817;DHT22;6473;51.552;6.716;2024-03-07T01:31:37;3.40;99.90
12817;DHT22;6473;51.552;6.716;2024-03-07T01:34:04;3.40;99.90
12817;DHT22;6473;51.552;6.716;2024-03-07T01:36:30;3.50;99.90
12817;DHT22;6473;51.552;6.716;2024-03-07T01:38:57;3.40;99.90
12817;DHT22;6473;51.552;6.716;2024-03-07T01:41:25;3.30;99.90
12817;DHT22;6473;51.552;6.716;2024-03-07T01:43:52;3.40;99.90
12817;DHT22;6473;51.552;6.716;2024-03-07T01:46:19;3.30;99.90
12817;DHT22;6473;51.552;6.716;2024-03-07T01:48:46;3.30;99.90
12817;DHT22;6473;51.552;6.716;2024-03-07T01:51:14;3.30;99.90
12817;DHT22;6473;51.552;6.716;2024-03-07T01:53:41;3.30;99.90
12817;DHT22;6473;51.552;6.716;2024-03-07T01:56:08;3.40;99.90
12817;DHT22;6473;51.552;6.716;2024-03-07T01:58:36;3.40;99.90
12817;DHT22;6473;51.552;6.716;2024-03-07T02:01:03;3.50;99.90
12817;DHT22;6473;51.552;6.716;2024-03-07T02:03:30;3.50;99.90
12817;DHT22;6473;51.552;6.716;2024-03-07T02:05:57;3.50;99.90
12817;DHT22;6473;51.552;6.716;2024-03-07T02:08:24;3.50;99.90
12817;DHT22;6473;51.552;6.716;2024-03-07T02:10:51;3.50;99.90
12817;DHT22;6473;51.552;6.716;2024-03-07T02:13:18;3.60;99.90
12817;DHT22;6473;51.552;6.716;2024-03-07T02:15:46;3.60;99.90
12817;DHT22;6473;51.552;6.716;2024-03-07T02:18:13;3.60;99.90
12817;DHT22;6473;51.552;6.716;2024-03-07T02:20:44;3.50;99.90
12817;DHT22;6473;51.552;6.716;2024-03-07T02:23:11;3.50;99.90
12817;DHT22;6473;51.552;6.716;2024-03-07T02:25:38;4.90;99.90
12817;DHT22;6473;51.552;6.716;2024-03-07T02:28:05;3.50;99.90
12817;DHT22;6473;51.552;6.716;2024-03-07T02:30:32;3.40;99.90
12817;DHT22;6473;51.552;6.716;2024-03-07T02:32:59;3.40;99.90
12817;DHT22;6473;51.552;6.716;2024-03-07T02:35:32;3.30;99.90
12817;DHT22;6473;51.552;6.716;2024-03-07T02:38:02;3.30;99.90
12817;DHT22;6473;51.552;6.716;2024-03-07T02:40:29;3.30;99.90
12817;DHT22;6473;51.552;6.716;2024-03-07T02:42:56;3.20;99.90
12817;DHT22;6473;51.552;6.716;2024-03-07T02:45:23;3.20;99.90
12817;DHT22;6473;51.552;6.716;2024-03-07T02:47:50;3.20;99.90
12817;DHT22;6473;51.552;6.716;2024-03-07T02:50:17;3.20;99.90
12817;DHT22;6473;51.552;6.716;2024-03-07T02:52:44;3.10;99.90
12817;DHT22;6473;51.552;6.716;2024-03-07T02:55:12;3.10;99.90
12817;DHT22;6473;51.552;6.716;2024-03-07T02:57:39;3.10;99.90
12817;DHT22;6473;51.552;6.716;2024-03-07T03:00:07;3.10;99.90
12817;DHT22;6473;51.552;6.716;2024-03-07T03:02:45;3.00;99.90
12817;DHT22;6473;51.552;6.716;2024-03-07T03:05:13;3.10;99.90
12817;DHT22;6473;51.552;6.716;2024-03-07T03:07:40;5.60;99.90
12817;DHT22;6473;51.552;6.716;2024-03-07T03:10:08;3.10;99.90
12817;DHT22;6473;51.552;6.716;2024-03-07T03:12:38;3.00;99.90
12817;DHT22;6473;51.552;6.716;2024-03-07T03:15:06;3.00;99.90
12817;DHT22;6473;51.552;6.716;2024-03-07T03:17:35;3.00;99.90
12817;DHT22;6473;51.552;6.716;2024-03-07T03:20:02;3.00;99.90
12817;DHT22;6473;51.552;6.716;2024-03-07T03:22:35;3.00;99.90
12817;DHT22;6473;51.552;6.716;2024-03-07T03:25:02;3.00;99.90
12817;DHT22;6473;51.552;6.716;2024-03-07T03:27:29;3.00;99.90
12817;DHT22;6473;51.552;6.716;2024-03-07T03:29:57;2.90;99.90
12817;DHT22;6473;51.552;6.716;2024-03-07T03:32:25;3.30;99.90
12817;DHT22;6473;51.552;6.716;2024-03-07T03:34:52;3.00;99.90
12817;DHT22;6473;51.552;6.716;2024-03-07T03:37:19;3.00;99.90
12817;DHT22;6473;51.552;6.716;2024-03-07T03:39:46;2.90;99.90
12817;DHT22;6473;51.552;6.716;2024-03-07T03:42:15;2.90;99.90
12817;DHT22;6473;51.552;6.716;2024-03-07T03:44:42;3.00;99.90
12817;DHT22;6473;51.552;6.716;2024-03-07T03:47:10;3.00;99.90
12817;DHT22;6473;51.552;6.716;2024-03-07T03:49:37;2.90;99.90
12817;DHT22;6473;51.552;6.716;2024-03-07T03:52:04;2.90;99.90
12817;DHT22;6473;51.552;6.716;2024-03-07T03:54:31;2.80;99.90
12817;DHT22;6473;51.552;6.716;2024-03-07T03:56:58;2.80;99.90
12817;DHT22;6473;51.552;6.716;2024-03-07T03:59:25;2.80;99.90
12817;DHT22;6473;51.552;6.716;2024-03-07T04:01:53;2.80;99.90
12817;DHT22;6473;51.552;6.716;2024-03-07T04:04:21;2.70;99.90
12817;DHT22;6473;51.552;6.716;2024-03-07T04:06:48;2.70;99.90
12817;DHT22;6473;51.552;6.716;2024-03-07T04:09:15;2.70;99.90
12817;DHT22;6473;51.552;6.716;2024-03-07T04:11:44;2.70;99.90
12817;DHT22;6473;51.552;6.716;2024-03-07T04:14:14;2.70;99.90
12817;DHT22;6473;51.552;6.716;2024-03-07T04:16:41;2.70;99.90
12817;DHT22;6473;51.552;6.716;2024-03-07T04:19:08;2.70;99.90
12817;DHT22;6473;51.552;6.716;2024-03-07T04:21:36;2.70;99.90
12817;DHT22;6473;51.552;6.716;2024-03-07T04:24:03;2.70;99.90
12817;DHT22;6473;51.552;6.716;2024-03-07T04:26:30;2.70;99.90
12817;DHT22;6473;51.552;6.716;2024-03-07T04:28:57;2.60;99.90
12817;DHT22;6473;51.552;6.716;2024-03-07T04:31:24;2.60;99.90
12817;DHT22;6473;51.552;6.716;2024-03-07T04:33:51;3.60;99.90
12817;DHT22;6473;51.552;6.716;2024-03-07T04:36:19;2.50;99.90
12817;DHT22;6473;51.552;6.716;2024-03-07T04:38:47;2.60;99.90
12817;DHT22;6473;51.552;6.716;2024-03-07T04:41:14;2.50;99.90
12817;DHT22;6473;51.552;6.716;2024-03-07T04:43:41;2.50;99.90
12817;DHT22;6473;51.552;6.716;2024-03-07T04:46:09;2.50;99.90
12817;DHT22;6473;51.552;6.716;2024-03-07T04:48:36;2.50;99.90
12817;DHT22;6473;51.552;6.716;2024-03-07T04:51:03;2.50;99.90
12817;DHT22;6473;51.552;6.716;2024-03-07T04:53:30;2.50;99.90
12817;DHT22;6473;51.552;6.716;2024-03-07T04:55:58;2.50;99.90
12817;DHT22;6473;51.552;6.716;2024-03-07T04:58:25;2.60;99.90
12817;DHT22;6473;51.552;6.716;2024-03-07T05:00:52;2.50;99.90
12817;DHT22;6473;51.552;6.716;2024-03-07T05:03:19;2.50;99.90
12817;DHT22;6473;51.552;6.716;2024-03-07T05:05:46;2.50;99.90
12817;DHT22;6473;51.552;6.716;2024-03-07T05:08:13;2.50;99.90
12817;DHT22;6473;51.552;6.716;2024-03-07T05:10:40;2.60;99.90
12817;DHT22;6473;51.552;6.716;2024-03-07T05:13:09;2.50;99.90
12817;DHT22;6473;51.552;6.716;2024-03-07T05:15:36;2.40;99.90
12817;DHT22;6473;51.552;6.716;2024-03-07T05:18:03;2.40;99.90
12817;DHT22;6473;51.552;6.716;2024-03-07T05:20:31;2.40;99.90
12817;DHT22;6473;51.552;6.716;2024-03-07T05:22:58;2.40;99.90
12817;DHT22;6473;51.552;6.716;2024-03-07T05:25:25;2.30;99.90
12817;DHT22;6473;51.552;6.716;2024-03-07T05:27:52;2.30;99.90
12817;DHT22;6473;51.552;6.716;2024-03-07T05:30:21;2.20;99.90
12817;DHT22;6473;51.552;6.716;2024-03-07T05:32:50;2.20;99.90
12817;DHT22;6473;51.552;6.716;2024-03-07T05:35:17;2.20;99.90
12817;DHT22;6473;51.552;6.716;2024-03-07T05:37:43;2.20;99.90
12817;DHT22;6473;51.552;6.716;2024-03-07T05:40:13;2.20;99.90
12817;DHT22;6473;51.552;6.716;2024-03-07T05:42:40;2.20;99.90
12817;DHT22;6473;51.552;6.716;2024-03-07T05:45:07;2.20;99.90
12817;DHT22;6473;51.552;6.716;2024-03-07T05:47:36;2.20;99.90
12817;DHT22;6473;51.552;6.716;2024-03-07T05:50:03;2.10;99.90
12817;DHT22;6473;51.552;6.716;2024-03-07T05:52:33;2.10;99.90
12817;DHT22;6473;51.552;6.716;2024-03-07T05:54:59;2.10;99.90
12817;DHT22;6473;51.552;6.716;2024-03-07T05:57:26;2.10;99.90
12817;DHT22;6473;51.552;6.716;2024-03-07T05:59:53;2.00;99.90
12817;DHT22;6473;51.552;6.716;2024-03-07T06:02:22;2.10;99.90
12817;DHT22;6473;51.552;6.716;2024-03-07T06:04:50;2.00;99.90
12817;DHT22;6473;51.552;6.716;2024-03-07T06:07:17;2.00;99.90
12817;DHT22;6473;51.552;6.716;2024-03-07T06:09:45;1.90;99.90
12817;DHT22;6473;51.552;6.716;2024-03-07T06:12:12;1.90;99.90
12817;DHT22;6473;51.552;6.716;2024-03-07T06:14:39;3.30;99.90
12817;DHT22;6473;51.552;6.716;2024-03-07T06:23:17;2.00;99.90
12817;DHT22;6473;51.552;6.716;2024-03-07T06:25:44;3.30;99.90
12817;DHT22;6473;51.552;6.716;2024-03-07T06:28:16;2.00;99.90
12817;DHT22;6473;51.552;6.716;2024-03-07T06:30:45;2.10;99.90
12817;DHT22;6473;51.552;6.716;2024-03-07T06:33:12;2.00;99.90
12817;DHT22;6473;51.552;6.716;2024-03-07T06:35:40;4.20;99.90
12817;DHT22;6473;51.552;6.716;2024-03-07T06:38:08;2.00;99.90
12817;DHT22;6473;51.552;6.716;2024-03-07T06:40:36;2.10;99.90
12817;DHT22;6473;51.552;6.716;2024-03-07T06:43:03;2.10;99.90
12817;DHT22;6473;51.552;6.716;2024-03-07T06:45:39;2.10;99.90
12817;DHT22;6473;51.552;6.716;2024-03-07T06:48:29;2.20;99.90
12817;DHT22;6473;51.552;6.716;2024-03-07T06:50:56;2.30;99.90
12817;DHT22;6473;51.552;6.716;2024-03-07T06:53:23;2.30;99.90
12817;DHT22;6473;51.552;6.716;2024-03-07T06:55:53;2.40;99.90
12817;DHT22;6473;51.552;6.716;2024-03-07T06:58:20;2.40;99.90
12817;DHT22;6473;51.552;6.716;2024-03-07T07:01:04;2.40;99.90
12817;DHT22;6473;51.552;6.716;2024-03-07T07:07:07;2.70;99.90
12817;DHT22;6473;51.552;6.716;2024-03-07T07:12:03;2.90;99.90
12817;DHT22;6473;51.552;6.716;2024-03-07T07:14:30;3.10;99.90
12817;DHT22;6473;51.552;6.716;2024-03-07T07:16:57;3.20;99.90
12817;DHT22;6473;51.552;6.716;2024-03-07T07:19:25;3.40;99.90
12817;DHT22;6473;51.552;6.716;2024-03-07T07:21:52;3.40;99.90
12817;DHT22;6473;51.552;6.716;2024-03-07T07:24:20;3.50;99.90
12817;DHT22;6473;51.552;6.716;2024-03-07T07:26:49;3.70;99.90
12817;DHT22;6473;51.552;6.716;2024-03-07T07:29:22;3.80;99.90
12817;DHT22;6473;51.552;6.716;2024-03-07T07:31:49;4.00;99.90
12817;DHT22;6473;51.552;6.716;2024-03-07T07:34:53;5.70;99.90
12817;DHT22;6473;51.552;6.716;2024-03-07T07:37:20;4.60;99.90
12817;DHT22;6473;51.552;6.716;2024-03-07T07:39:48;4.80;99.90
12817;DHT22;6473;51.552;6.716;2024-03-07T07:42:16;5.10;99.90
12817;DHT22;6473;51.552;6.716;2024-03-07T07:44:45;5.30;99.90
12817;DHT22;6473;51.552;6.716;2024-03-07T07:47:12;5.90;99.90
12817;DHT22;6473;51.552;6.716;2024-03-07T07:49:39;9.30;99.90
12817;DHT22;6473;51.552;6.716;2024-03-07T07:52:07;6.30;99.90
12817;DHT22;6473;51.552;6.716;2024-03-07T07:54:34;6.30;99.90
12817;DHT22;6473;51.552;6.716;2024-03-07T07:57:01;6.80;99.90
12817;DHT22;6473;51.552;6.716;2024-03-07T07:59:28;7.00;99.90
12817;DHT22;6473;51.552;6.716;2024-03-07T08:01:56;7.30;99.90
12817;DHT22;6473;51.552;6.716;2024-03-07T08:04:23;8.20;99.90
12817;DHT22;6473;51.552;6.716;2024-03-07T08:06:50;9.10;99.90
12817;DHT22;6473;51.552;6.716;2024-03-07T08:09:17;7.90;99.90
12817;DHT22;6473;51.552;6.716;2024-03-07T08:11:44;8.10;99.90
12817;DHT22;6473;51.552;6.716;2024-03-07T08:14:11;9.50;99.90
12817;DHT22;6473;51.552;6.716;2024-03-07T08:16:38;8.80;99.90
12817;DHT22;6473;51.552;6.716;2024-03-07T08:19:07;8.80;99.90
12817;DHT22;6473;51.552;6.716;2024-03-07T08:21:35;9.10;99.90
12817;DHT22;6473;51.552;6.716;2024-03-07T08:24:03;9.40;98.90
12817;DHT22;6473;51.552;6.716;2024-03-07T08:26:36;8.60;93.20
12817;DHT22;6473;51.552;6.716;2024-03-07T08:29:03;11.20;92.70
12817;DHT22;6473;51.552;6.716;2024-03-07T08:31:30;11.50;86.90
12817;DHT22;6473;51.552;6.716;2024-03-07T08:33:58;11.90;90.00
12817;DHT22;6473;51.552;6.716;2024-03-07T08:39:50;10.10;78.10
12817;DHT22;6473;51.552;6.716;2024-03-07T08:42:17;10.10;64.40
12817;DHT22;6473;51.552;6.716;2024-03-07T08:44:45;9.80;69.30
12817;DHT22;6473;51.552;6.716;2024-03-07T08:47:12;10.00;67.10
12817;DHT22;6473;51.552;6.716;2024-03-07T08:49:39;9.30;56.10
12817;DHT22;6473;51.552;6.716;2024-03-07T08:52:06;9.50;46.60
12817;DHT22;6473;51.552;6.716;2024-03-07T08:54:34;9.40;46.40
12817;DHT22;6473;51.552;6.716;2024-03-07T08:57:02;9.40;48.80
12817;DHT22;6473;51.552;6.716;2024-03-07T08:59:30;9.20;37.60
12817;DHT22;6473;51.552;6.716;2024-03-07T09:01:59;9.40;31.50
12817;DHT22;6473;51.552;6.716;2024-03-07T09:04:27;9.50;33.70
12817;DHT22;6473;51.552;6.716;2024-03-07T09:06:54;12.00;40.30
12817;DHT22;6473;51.552;6.716;2024-03-07T09:09:21;10.20;22.60
12817;DHT22;6473;51.552;6.716;2024-03-07T09:11:47;10.20;23.60
12817;DHT22;6473;51.552;6.716;2024-03-07T09:14:16;9.80;21.20
12817;DHT22;6473;51.552;6.716;2024-03-07T09:16:43;10.20;15.20
12817;DHT22;6473;51.552;6.716;2024-03-07T09:19:10;13.30;13.80
12817;DHT22;6473;51.552;6.716;2024-03-07T09:21:39;12.30;10.60
12817;DHT22;6473;51.552;6.716;2024-03-07T09:24:07;10.00;17.80
12817;DHT22;6473;51.552;6.716;2024-03-07T09:26:34;9.80;11.80
12817;DHT22;6473;51.552;6.716;2024-03-07T09:29:01;11.10;16.50
12817;DHT22;6473;51.552;6.716;2024-03-07T09:31:35;9.50;13.30
12817;DHT22;6473;51.552;6.716;2024-03-07T09:34:07;9.50;13.90
12817;DHT22;6473;51.552;6.716;2024-03-07T09:36:35;9.00;15.00
12817;DHT22;6473;51.552;6.716;2024-03-07T09:39:01;8.80;22.00
12817;DHT22;6473;51.552;6.716;2024-03-07T09:41:29;8.70;24.10
12817;DHT22;6473;51.552;6.716;2024-03-07T09:43:59;8.80;25.00
12817;DHT22;6473;51.552;6.716;2024-03-07T09:46:27;8.80;32.00
12817;DHT22;6473;51.552;6.716;2024-03-07T09:48:55;9.60;30.20
12817;DHT22;6473;51.552;6.716;2024-03-07T09:51:24;10.90;38.30
12817;DHT22;6473;51.552;6.716;2024-03-07T09:53:53;8.90;41.00
12817;DHT22;6473;51.552;6.716;2024-03-07T09:56:21;9.80;52.10
12817;DHT22;6473;51.552;6.716;2024-03-07T09:58:50;9.40;55.10
12817;DHT22;6473;51.552;6.716;2024-03-07T10:01:20;8.90;57.40
12817;DHT22;6473;51.552;6.716;2024-03-07T10:03:48;9.10;54.00
12817;DHT22;6473;51.552;6.716;2024-03-07T10:06:17;10.00;55.70
12817;DHT22;6473;51.552;6.716;2024-03-07T10:08:44;9.30;51.40
12817;DHT22;6473;51.552;6.716;2024-03-07T10:11:11;10.30;48.10
12817;DHT22;6473;51.552;6.716;2024-03-07T10:19:11;9.90;39.70
12817;DHT22;6473;51.552;6.716;2024-03-07T10:24:26;10.50;27.70
12817;DHT22;6473;51.552;6.716;2024-03-07T10:26:54;12.60;23.50
12817;DHT22;6473;51.552;6.716;2024-03-07T10:29:30;10.70;22.60
12817;DHT22;6473;51.552;6.716;2024-03-07T10:31:57;13.00;21.60
12817;DHT22;6473;51.552;6.716;2024-03-07T10:34:24;13.40;17.40
12817;DHT22;6473;51.552;6.716;2024-03-07T10:36:52;11.00;13.60
12817;DHT22;6473;51.552;6.716;2024-03-07T10:39:20;11.40;8.90
12817;DHT22;6473;51.552;6.716;2024-03-07T10:41:55;13.00;5.80
12817;DHT22;6473;51.552;6.716;2024-03-07T10:44:24;11.90;1.00
12817;DHT22;6473;51.552;6.716;2024-03-07T10:46:55;12.50;1.00
12817;DHT22;6473;51.552;6.716;2024-03-07T11:00:36;14.50;1.00
12817;DHT22;6473;51.552;6.716;2024-03-07T11:03:09;14.90;1.00
12817;DHT22;6473;51.552;6.716;2024-03-07T11:05:37;14.90;1.00
12817;DHT22;6473;51.552;6.716;2024-03-07T11:08:05;14.90;1.00
12817;DHT22;6473;51.552;6.716;2024-03-07T11:10:45;14.60;1.00
12817;DHT22;6473;51.552;6.716;2024-03-07T11:13:14;14.60;1.00
12817;DHT22;6473;51.552;6.716;2024-03-07T11:15:46;15.80;1.00
12817;DHT22;6473;51.552;6.716;2024-03-07T11:23:44;14.10;1.00
12817;DHT22;6473;51.552;6.716;2024-03-07T11:28:41;14.50;1.00
12817;DHT22;6473;51.552;6.716;2024-03-07T11:31:12;15.00;1.00
12817;DHT22;6473;51.552;6.716;2024-03-07T11:33:40;15.20;1.00
12817;DHT22;6473;51.552;6.716;2024-03-07T11:36:07;15.10;1.00
12817;DHT22;6473;51.552;6.716;2024-03-07T11:38:35;14.90;1.00
12817;DHT22;6473;51.552;6.716;2024-03-07T11:41:04;15.40;1.00
12817;DHT22;6473;51.552;6.716;2024-03-07T11:43:34;16.00;1.00
12817;DHT22;6473;51.552;6.716;2024-03-07T11:46:01;16.00;1.00
12817;DHT22;6473;51.552;6.716;2024-03-07T11:48:29;15.70;1.00
12817;DHT22;6473;51.552;6.716;2024-03-07T11:50:56;14.60;1.00
12817;DHT22;6473;51.552;6.716;2024-03-07T11:53:23;14.60;1.00
12817;DHT22;6473;51.552;6.716;2024-03-07T11:55:50;14.40;1.00
12817;DHT22;6473;51.552;6.716;2024-03-07T11:58:23;15.40;1.00
12817;DHT22;6473;51.552;6.716;2024-03-07T12:00:52;15.40;1.00
12817;DHT22;6473;51.552;6.716;2024-03-07T12:03:19;15.90;1.00
12817;DHT22;6473;51.552;6.716;2024-03-07T12:05:49;17.00;1.00
12817;DHT22;6473;51.552;6.716;2024-03-07T12:08:17;17.10;1.00
12817;DHT22;6473;51.552;6.716;2024-03-07T12:10:45;14.90;1.00
12817;DHT22;6473;51.552;6.716;2024-03-07T12:13:13;18.10;1.00
12817;DHT22;6473;51.552;6.716;2024-03-07T12:15:42;17.00;1.00
12817;DHT22;6473;51.552;6.716;2024-03-07T12:18:09;18.10;1.00
12817;DHT22;6473;51.552;6.716;2024-03-07T12:20:41;14.80;1.00
12817;DHT22;6473;51.552;6.716;2024-03-07T12:23:13;16.40;1.00
12817;DHT22;6473;51.552;6.716;2024-03-07T12:25:44;15.30;1.00
12817;DHT22;6473;51.552;6.716;2024-03-07T12:28:13;15.30;1.00
12817;DHT22;6473;51.552;6.716;2024-03-07T12:30:49;14.60;1.00
12817;DHT22;6473;51.552;6.716;2024-03-07T12:33:20;18.00;1.00
12817;DHT22;6473;51.552;6.716;2024-03-07T12:35:50;14.00;1.00
12817;DHT22;6473;51.552;6.716;2024-03-07T12:38:19;12.80;1.00
12817;DHT22;6473;51.552;6.716;2024-03-07T12:41:02;14.60;1.00
12817;DHT22;6473;51.552;6.716;2024-03-07T12:43:31;11.70;1.00
12817;DHT22;6473;51.552;6.716;2024-03-07T12:45:58;11.20;1.00
12817;DHT22;6473;51.552;6.716;2024-03-07T12:48:25;11.30;1.50
12817;DHT22;6473;51.552;6.716;2024-03-07T12:50:53;11.60;11.90
12817;DHT22;6473;51.552;6.716;2024-03-07T12:53:22;11.40;18.10
12817;DHT22;6473;51.552;6.716;2024-03-07T12:55:51;13.70;16.30
12817;DHT22;6473;51.552;6.716;2024-03-07T12:58:18;12.00;10.50
12817;DHT22;6473;51.552;6.716;2024-03-07T13:03:15;12.50;1.00
12817;DHT22;6473;51.552;6.716;2024-03-07T13:05:42;13.90;1.00
12817;DHT22;6473;51.552;6.716;2024-03-07T13:08:09;14.90;1.00
12817;DHT22;6473;51.552;6.716;2024-03-07T13:10:39;15.90;1.00
12817;DHT22;6473;51.552;6.716;2024-03-07T13:13:06;15.20;1.00
12817;DHT22;6473;51.552;6.716;2024-03-07T13:15:35;14.60;1.00
12817;DHT22;6473;51.552;6.716;2024-03-07T13:25:02;14.10;1.00
12817;DHT22;6473;51.552;6.716;2024-03-07T13:28:17;14.10;1.00
12817;DHT22;6473;51.552;6.716;2024-03-07T13:30:48;14.40;1.00
12817;DHT22;6473;51.552;6.716;2024-03-07T13:33:32;15.80;1.00
12817;DHT22;6473;51.552;6.716;2024-03-07T13:36:01;15.60;1.00
12817;DHT22;6473;51.552;6.716;2024-03-07T13:38:30;14.90;1.00
12817;DHT22;6473;51.552;6.716;2024-03-07T13:40:56;15.50;1.00
12817;DHT22;6473;51.552;6.716;2024-03-07T13:43:25;16.20;1.00
12817;DHT22;6473;51.552;6.716;2024-03-07T13:45:52;17.00;1.00
12817;DHT22;6473;51.552;6.716;2024-03-07T13:48:19;18.50;1.00
12817;DHT22;6473;51.552;6.716;2024-03-07T13:50:47;16.60;1.00
12817;DHT22;6473;51.552;6.716;2024-03-07T13:53:16;17.10;1.00
12817;DHT22;6473;51.552;6.716;2024-03-07T13:59:23;13.30;1.00
12817;DHT22;6473;51.552;6.716;2024-03-07T14:02:04;13.10;1.00
12817;DHT22;6473;51.552;6.716;2024-03-07T14:05:07;12.40;1.00
12817;DHT22;6473;51.552;6.716;2024-03-07T14:18:24;10.90;10.30
12817;DHT22;6473;51.552;6.716;2024-03-07T14:21:22;11.30;14.30
12817;DHT22;6473;51.552;6.716;2024-03-07T14:27:27;10.50;12.60
12817;DHT22;6473;51.552;6.716;2024-03-07T14:30:15;10.50;11.40
12817;DHT22;6473;51.552;6.716;2024-03-07T14:32:49;10.60;9.80
12817;DHT22;6473;51.552;6.716;2024-03-07T14:35:23;10.70;7.90
12817;DHT22;6473;51.552;6.716;2024-03-07T14:38:06;11.60;1.00
12817;DHT22;6473;51.552;6.716;2024-03-07T14:40:51;12.20;1.00
12817;DHT22;6473;51.552;6.716;2024-03-07T14:43:18;12.10;1.00
12817;DHT22;6473;51.552;6.716;2024-03-07T14:45:47;11.90;1.00
12817;DHT22;6473;51.552;6.716;2024-03-07T14:48:17;11.10;1.00
12817;DHT22;6473;51.552;6.716;2024-03-07T14:50:46;14.30;1.00
12817;DHT22;6473;51.552;6.716;2024-03-07T14:53:14;10.80;1.00
12817;DHT22;6473;51.552;6.716;2024-03-07T14:55:42;10.50;1.00
12817;DHT22;6473;51.552;6.716;2024-03-07T14:58:10;10.60;3.00
12817;DHT22;6473;51.552;6.716;2024-03-07T15:00:44;10.60;2.20
12817;DHT22;6473;51.552;6.716;2024-03-07T15:03:31;10.40;1.60
12817;DHT22;6473;51.552;6.716;2024-03-07T15:06:08;10.40;4.00
12817;DHT22;6473;51.552;6.716;2024-03-07T15:08:35;12.20;1.00
12817;DHT22;6473;51.552;6.716;2024-03-07T15:11:07;14.50;1.00
12817;DHT22;6473;51.552;6.716;2024-03-07T15:13:39;13.00;1.00
12817;DHT22;6473;51.552;6.716;2024-03-07T15:16:06;12.20;1.00
12817;DHT22;6473;51.552;6.716;2024-03-07T15:18:33;12.10;1.00
12817;DHT22;6473;51.552;6.716;2024-03-07T15:21:00;12.40;1.00
12817;DHT22;6473;51.552;6.716;2024-03-07T15:33:42;10.40;1.00
12817;DHT22;6473;51.552;6.716;2024-03-07T15:36:09;13.00;1.00
12817;DHT22;6473;51.552;6.716;2024-03-07T15:38:44;12.10;1.00
12817;DHT22;6473;51.552;6.716;2024-03-07T15:41:11;13.10;1.00
12817;DHT22;6473;51.552;6.716;2024-03-07T15:43:39;13.00;1.00
12817;DHT22;6473;51.552;6.716;2024-03-07T15:46:20;10.50;1.00
12817;DHT22;6473;51.552;6.716;2024-03-07T15:52:40;11.00;1.00
12817;DHT22;6473;51.552;6.716;2024-03-07T15:55:08;12.70;1.00
12817;DHT22;6473;51.552;6.716;2024-03-07T16:01:43;10.10;1.00
12817;DHT22;6473;51.552;6.716;2024-03-07T16:04:10;10.10;1.00
12817;DHT22;6473;51.552;6.716;2024-03-07T16:10:33;9.90;1.00
12817;DHT22;6473;51.552;6.716;2024-03-07T16:13:02;11.00;1.00
12817;DHT22;6473;51.552;6.716;2024-03-07T16:15:33;9.60;1.00
12817;DHT22;6473;51.552;6.716;2024-03-07T16:23:24;9.30;3.00
12817;DHT22;6473;51.552;6.716;2024-03-07T16:25:57;9.30;6.90
12817;DHT22;6473;51.552;6.716;2024-03-07T16:28:26;10.00;8.10
12817;DHT22;6473;51.552;6.716;2024-03-07T16:30:53;10.30;10.80
12817;DHT22;6473;51.552;6.716;2024-03-07T16:33:21;9.10;37.00
12817;DHT22;6473;51.552;6.716;2024-03-07T16:35:50;9.00;50.60
12817;DHT22;6473;51.552;6.716;2024-03-07T16:38:17;9.00;56.60
12817;DHT22;6473;51.552;6.716;2024-03-07T16:40:49;8.90;56.90
12817;DHT22;6473;51.552;6.716;2024-03-07T16:43:21;8.90;63.10
12817;DHT22;6473;51.552;6.716;2024-03-07T16:45:50;6.60;66.90
12817;DHT22;6473;51.552;6.716;2024-03-07T16:48:23;9.80;71.00
12817;DHT22;6473;51.552;6.716;2024-03-07T16:50:50;8.90;74.60
12817;DHT22;6473;51.552;6.716;2024-03-07T16:53:19;9.20;74.10
12817;DHT22;6473;51.552;6.716;2024-03-07T16:55:49;8.80;72.50
12817;DHT22;6473;51.552;6.716;2024-03-07T16:58:21;7.60;78.80
12817;DHT22;6473;51.552;6.716;2024-03-07T17:00:50;10.00;84.30
12817;DHT22;6473;51.552;6.716;2024-03-07T17:03:19;8.50;87.90
12817;DHT22;6473;51.552;6.716;2024-03-07T17:05:46;8.60;90.10
12817;DHT22;6473;51.552;6.716;2024-03-07T17:08:13;8.50;90.30
12817;DHT22;6473;51.552;6.716;2024-03-07T17:10:42;8.40;91.60
12817;DHT22;6473;51.552;6.716;2024-03-07T17:13:21;9.50;94.00
12817;DHT22;6473;51.552;6.716;2024-03-07T17:15:48;10.30;95.10
12817;DHT22;6473;51.552;6.716;2024-03-07T17:20:53;8.20;95.90
12817;DHT22;6473;51.552;6.716;2024-03-07T17:23:21;11.70;97.80
12817;DHT22;6473;51.552;6.716;2024-03-07T17:25:49;7.90;98.60
12817;DHT22;6473;51.552;6.716;2024-03-07T17:28:25;7.80;99.30
12817;DHT22;6473;51.552;6.716;2024-03-07T17:30:54;8.00;99.90
12817;DHT22;6473;51.552;6.716;2024-03-07T17:33:22;10.50;99.90
12817;DHT22;6473;51.552;6.716;2024-03-07T17:38:19;7.70;99.90
12817;DHT22;6473;51.552;6.716;2024-03-07T17:43:16;5.70;99.90
12817;DHT22;6473;51.552;6.716;2024-03-07T17:45:47;5.90;99.90
12817;DHT22;6473;51.552;6.716;2024-03-07T17:48:16;10.40;99.90
12817;DHT22;6473;51.552;6.716;2024-03-07T17:50:46;7.50;99.90
12817;DHT22;6473;51.552;6.716;2024-03-07T17:53:14;7.40;99.90
12817;DHT22;6473;51.552;6.716;2024-03-07T17:55:44;9.10;99.90